createdAt,value
2018-07-25T00:00:57.162Z,17.74
2018-07-25T00:03:26.210Z,17.71
2018-07-25T00:05:55.529Z,17.91
2018-07-25T00:08:24.622Z,17.97
2018-07-25T00:10:54.358Z,17.86
2018-07-25T00:13:25.970Z,17.76
2018-07-25T00:15:55.461Z,17.70
2018-07-25T00:18:24.562Z,17.76
2018-07-25T00:20:54.213Z,17.83
2018-07-25T00:23:23.541Z,17.76
2018-07-25T00:25:53.259Z,17.71
2018-07-25T00:28:22.470Z,17.79
2018-07-25T00:30:52.430Z,17.88
2018-07-25T00:33:21.341Z,17.70
2018-07-25T00:35:50.489Z,17.59
2018-07-25T00:38:20.063Z,17.50
2018-07-25T00:40:49.699Z,17.37
2018-07-25T00:43:19.367Z,17.46
2018-07-25T00:45:48.547Z,17.40
2018-07-25T00:48:17.637Z,17.32
2018-07-25T00:50:46.775Z,17.43
2018-07-25T00:53:16.197Z,17.35
2018-07-25T00:55:45.720Z,17.25
2018-07-25T00:58:16.509Z,17.25
2018-07-25T01:00:46.809Z,17.18
2018-07-25T01:03:15.926Z,17.20
2018-07-25T01:05:45.846Z,17.05
2018-07-25T01:08:15.499Z,16.94
2018-07-25T01:10:44.632Z,16.91
2018-07-25T01:13:13.796Z,17.01
2018-07-25T01:15:43.134Z,16.91
2018-07-25T01:18:12.238Z,16.93
2018-07-25T01:20:41.359Z,16.87
2018-07-25T01:23:10.505Z,16.87
2018-07-25T01:25:39.638Z,16.87
2018-07-25T01:28:08.762Z,16.83
2018-07-25T01:30:37.862Z,16.70
2018-07-25T01:33:07.354Z,16.69
2018-07-25T01:35:36.556Z,16.63
2018-07-25T01:38:06.476Z,16.78
2018-07-25T01:40:35.724Z,16.79
2018-07-25T01:43:04.914Z,16.71
2018-07-25T01:45:34.290Z,16.70
2018-07-25T01:48:03.102Z,16.65
2018-07-25T01:50:32.277Z,16.67
2018-07-25T01:53:01.483Z,16.80
2018-07-25T01:55:30.608Z,16.96
2018-07-25T01:57:59.694Z,17.19
2018-07-25T02:00:28.944Z,17.16
2018-07-25T02:02:58.097Z,17.15
2018-07-25T02:05:27.210Z,17.17
2018-07-25T02:07:57.538Z,17.16
2018-07-25T02:10:26.673Z,17.05
2018-07-25T02:12:55.817Z,17.04
2018-07-25T02:15:24.947Z,17.10
2018-07-25T02:17:54.066Z,17.03
2018-07-25T02:20:23.187Z,16.89
2018-07-25T02:22:56.306Z,16.87
2018-07-25T02:25:25.742Z,16.68
2018-07-25T02:27:55.413Z,16.50
2018-07-25T02:30:25.276Z,16.44
2018-07-25T02:32:54.414Z,16.42
2018-07-25T02:35:23.971Z,16.39
2018-07-25T02:37:53.305Z,16.44
2018-07-25T02:40:25.691Z,16.35
2018-07-25T02:42:55.190Z,16.29
2018-07-25T02:45:24.315Z,16.27
2018-07-25T02:47:53.782Z,16.21
2018-07-25T02:50:22.910Z,16.27
2018-07-25T02:52:52.102Z,16.27
2018-07-25T02:55:24.043Z,16.24
2018-07-25T02:57:53.261Z,16.21
2018-07-25T03:00:22.406Z,16.18
2018-07-25T03:02:51.827Z,16.12
2018-07-25T03:05:21.005Z,16.15
2018-07-25T03:07:51.505Z,16.11
2018-07-25T03:10:20.918Z,16.14
2018-07-25T03:12:51.381Z,16.14
2018-07-25T03:15:20.937Z,16.11
2018-07-25T03:17:51.437Z,16.03
2018-07-25T03:20:20.522Z,16.10
2018-07-25T03:22:49.924Z,16.17
2018-07-25T03:25:19.091Z,16.12
2018-07-25T03:27:49.307Z,16.07
2018-07-25T03:30:18.426Z,15.89
2018-07-25T03:32:47.538Z,15.79
2018-07-25T03:35:18.667Z,15.76
2018-07-25T03:37:47.848Z,15.76
2018-07-25T03:40:17.021Z,15.73
2018-07-25T03:42:46.206Z,15.65
2018-07-25T03:45:16.077Z,15.69
2018-07-25T03:47:45.218Z,15.83
2018-07-25T03:50:14.911Z,15.81
2018-07-25T03:52:44.274Z,15.87
2018-07-25T03:55:13.521Z,15.90
2018-07-25T03:57:42.835Z,15.90
2018-07-25T04:00:12.581Z,15.89
2018-07-25T04:02:41.894Z,15.76
2018-07-25T04:05:12.242Z,15.89
2018-07-25T04:07:41.415Z,16.04
2018-07-25T04:10:10.991Z,16.21
2018-07-25T04:12:41.238Z,16.41
2018-07-25T04:15:11.186Z,16.41
2018-07-25T04:17:44.351Z,16.47
2018-07-25T04:20:15.556Z,16.72
2018-07-25T04:22:48.289Z,16.68
2018-07-25T04:25:17.837Z,16.61
2018-07-25T04:27:47.546Z,16.58
2018-07-25T04:30:18.106Z,16.68
2018-07-25T04:32:47.271Z,17.13
2018-07-25T04:35:17.058Z,17.52
2018-07-25T04:37:47.113Z,17.85
2018-07-25T04:40:16.773Z,17.93
2018-07-25T04:42:45.994Z,18.11
2018-07-25T04:45:15.392Z,18.52
2018-07-25T04:47:45.766Z,19.07
2018-07-25T04:50:14.955Z,19.77
2018-07-25T04:52:45.507Z,20.27
2018-07-25T04:55:14.321Z,20.79
2018-07-25T04:57:43.462Z,21.41
2018-07-25T05:00:13.349Z,21.69
2018-07-25T05:02:42.520Z,21.93
2018-07-25T05:05:11.705Z,22.30
2018-07-25T05:07:41.560Z,22.97
2018-07-25T05:10:12.560Z,23.06
2018-07-25T05:12:42.866Z,23.02
2018-07-25T05:15:12.323Z,23.08
2018-07-25T05:17:43.502Z,23.38
2018-07-25T05:20:12.654Z,23.30
2018-07-25T05:22:41.838Z,23.76
2018-07-25T05:25:11.024Z,23.25
2018-07-25T05:27:40.210Z,23.56
2018-07-25T05:30:09.873Z,23.47
2018-07-25T05:32:39.775Z,23.89
2018-07-25T05:35:08.910Z,24.30
2018-07-25T05:37:38.018Z,24.25
2018-07-25T05:40:07.933Z,24.33
2018-07-25T05:42:37.362Z,23.82
2018-07-25T05:45:07.211Z,23.50
2018-07-25T05:47:36.330Z,24.34
2018-07-25T05:50:06.407Z,24.45
2018-07-25T05:52:35.726Z,24.02
2018-07-25T05:55:05.154Z,24.23
2018-07-25T05:57:34.565Z,24.23
2018-07-25T06:00:04.219Z,24.46
2018-07-25T06:02:33.322Z,24.40
2018-07-25T06:05:02.723Z,24.64
2018-07-25T06:07:32.241Z,25.68
2018-07-25T06:10:01.450Z,25.70
2018-07-25T06:12:31.197Z,25.55
2018-07-25T06:15:00.364Z,25.97
2018-07-25T06:17:29.558Z,26.25
2018-07-25T06:19:58.669Z,26.39
2018-07-25T06:22:28.324Z,27.22
2018-07-25T06:24:57.555Z,27.24
2018-07-25T06:27:26.698Z,27.34
2018-07-25T06:29:55.841Z,27.24
2018-07-25T06:32:24.981Z,26.58
2018-07-25T06:34:54.348Z,28.25
2018-07-25T06:37:23.882Z,27.89
2018-07-25T06:39:53.011Z,28.16
2018-07-25T06:42:22.141Z,27.79
2018-07-25T06:44:51.718Z,28.90
2018-07-25T06:47:21.104Z,28.06
2018-07-25T06:49:50.209Z,28.80
2018-07-25T06:52:19.322Z,29.34
2018-07-25T06:54:48.453Z,30.22
2018-07-25T06:57:17.603Z,30.74
2018-07-25T06:59:46.545Z,30.80
2018-07-25T07:02:15.685Z,30.36
2018-07-25T07:04:44.876Z,31.92
2018-07-25T07:07:14.077Z,31.88
2018-07-25T07:09:43.270Z,30.63
2018-07-25T07:12:12.417Z,30.46
2018-07-25T07:14:41.878Z,31.44
2018-07-25T07:17:10.697Z,29.66
2018-07-25T07:19:39.809Z,30.82
2018-07-25T07:22:08.970Z,30.56
2018-07-25T07:24:38.151Z,32.50
2018-07-25T07:27:07.455Z,31.37
2018-07-25T07:29:36.598Z,32.08
2018-07-25T07:32:05.736Z,32.42
2018-07-25T07:34:34.882Z,32.21
2018-07-25T07:37:04.018Z,31.74
2018-07-25T07:39:33.197Z,32.52
2018-07-25T07:42:02.347Z,33.93
2018-07-25T07:44:31.462Z,35.62
2018-07-25T07:47:00.674Z,36.71
2018-07-25T07:49:29.813Z,34.11
2018-07-25T07:51:58.934Z,35.75
2018-07-25T07:54:28.052Z,35.76
2018-07-25T07:56:57.196Z,36.99
2018-07-25T07:59:26.394Z,36.64
2018-07-25T08:01:55.474Z,35.81
2018-07-25T08:04:24.711Z,35.25
2018-07-25T08:06:53.897Z,36.66
2018-07-25T08:09:23.015Z,37.16
2018-07-25T08:11:52.221Z,38.09
2018-07-25T08:14:21.431Z,37.40
2018-07-25T08:16:50.553Z,37.64
2018-07-25T08:19:19.327Z,37.45
2018-07-25T08:21:48.473Z,37.97
2018-07-25T08:24:17.607Z,38.82
2018-07-25T08:26:46.745Z,40.54
2018-07-25T08:29:15.866Z,39.98
2018-07-25T08:31:45.210Z,39.27
2018-07-25T08:34:14.362Z,38.41
2018-07-25T08:36:43.509Z,38.92
2018-07-25T08:39:12.868Z,38.26
2018-07-25T08:41:42.036Z,38.96
2018-07-25T08:44:11.130Z,39.33
2018-07-25T08:46:40.275Z,39.26
2018-07-25T08:49:09.461Z,40.26
2018-07-25T08:51:38.614Z,40.55
2018-07-25T08:54:07.849Z,41.01
2018-07-25T08:56:37.178Z,41.64
2018-07-25T08:59:06.306Z,42.70
2018-07-25T09:01:35.471Z,41.58
2018-07-25T09:04:04.673Z,41.86
2018-07-25T09:06:33.817Z,40.20
2018-07-25T09:09:02.926Z,39.95
2018-07-25T09:11:34.994Z,40.79
2018-07-25T09:14:04.874Z,41.00
2018-07-25T09:16:33.994Z,41.36
2018-07-25T09:19:03.849Z,42.14
2018-07-25T09:21:33.349Z,43.53
2018-07-25T09:24:02.118Z,44.78
2018-07-25T09:26:31.252Z,42.79
2018-07-25T09:29:00.543Z,43.22
2018-07-25T09:31:29.713Z,44.72
2018-07-25T09:33:58.864Z,44.43
2018-07-25T09:36:27.996Z,45.67
2018-07-25T09:38:57.150Z,46.58
2018-07-25T09:41:26.273Z,46.04
2018-07-25T09:43:55.454Z,43.51
2018-07-25T09:46:24.656Z,45.83
2018-07-25T09:48:53.730Z,46.48
2018-07-25T09:51:22.893Z,45.34
2018-07-25T09:53:52.039Z,44.11
2018-07-25T09:56:21.172Z,44.03
2018-07-25T09:58:50.277Z,45.37
2018-07-25T10:01:19.425Z,44.79
2018-07-25T10:03:48.523Z,44.30
2018-07-25T10:06:17.798Z,44.53
2018-07-25T10:08:46.923Z,44.82
2018-07-25T10:11:16.067Z,42.01
2018-07-25T10:13:45.210Z,42.99
2018-07-25T10:16:14.674Z,44.56
2018-07-25T10:18:43.841Z,45.44
2018-07-25T10:21:12.908Z,45.18
2018-07-25T10:23:41.754Z,44.65
2018-07-25T10:26:12.762Z,46.55
2018-07-25T10:28:41.910Z,49.19
2018-07-25T10:31:11.083Z,43.93
2018-07-25T10:33:40.207Z,43.76
2018-07-25T10:36:09.407Z,44.02
2018-07-25T10:38:38.538Z,47.63
2018-07-25T10:41:07.677Z,49.49
2018-07-25T10:43:36.811Z,48.10
2018-07-25T10:46:05.945Z,47.64
2018-07-25T10:48:35.101Z,43.96
2018-07-25T10:51:04.217Z,43.04
2018-07-25T10:53:33.362Z,44.08
2018-07-25T10:56:02.608Z,45.31
2018-07-25T10:58:31.661Z,46.37
2018-07-25T11:01:00.881Z,45.82
2018-07-25T11:03:30.174Z,41.18
2018-07-25T11:05:59.300Z,42.36
2018-07-25T11:08:28.412Z,41.37
2018-07-25T11:10:58.115Z,42.13
2018-07-25T11:13:27.286Z,43.58
2018-07-25T11:15:56.438Z,44.82
2018-07-25T11:18:25.564Z,45.00
2018-07-25T11:20:54.778Z,42.02
2018-07-25T11:23:23.962Z,43.62
2018-07-25T11:25:54.575Z,43.69
2018-07-25T11:28:24.510Z,43.39
2018-07-25T11:30:54.576Z,41.31
2018-07-25T11:33:23.695Z,39.98
2018-07-25T11:35:52.852Z,40.04
2018-07-25T11:38:22.460Z,38.94
2018-07-25T11:40:51.621Z,39.69
2018-07-25T11:43:20.810Z,40.48
2018-07-25T11:45:49.937Z,40.05
2018-07-25T11:48:19.474Z,40.92
2018-07-25T11:50:48.562Z,40.90
2018-07-25T11:53:17.709Z,43.20
2018-07-25T11:55:47.635Z,44.50
2018-07-25T11:58:16.731Z,46.42
2018-07-25T12:00:45.870Z,46.92
2018-07-25T12:03:15.860Z,45.84
2018-07-25T12:05:45.269Z,46.85
2018-07-25T12:08:14.503Z,45.31
2018-07-25T12:10:43.874Z,47.19
2018-07-25T12:13:13.239Z,47.17
2018-07-25T12:15:42.348Z,45.62
2018-07-25T12:18:11.486Z,47.67
2018-07-25T12:20:40.618Z,46.35
2018-07-25T12:23:09.738Z,41.46
2018-07-25T12:25:38.545Z,38.73
2018-07-25T12:28:07.741Z,40.93
2018-07-25T12:30:37.218Z,42.95
2018-07-25T12:33:06.654Z,44.13
2018-07-25T12:35:35.169Z,43.32
2018-07-25T12:38:05.489Z,44.87
2018-07-25T12:40:34.610Z,45.61
2018-07-25T12:43:03.782Z,44.76
2018-07-25T12:45:32.917Z,46.55
2018-07-25T12:48:02.032Z,45.60
2018-07-25T12:50:30.948Z,46.56
2018-07-25T12:53:00.141Z,45.38
2018-07-25T12:55:29.249Z,46.59
2018-07-25T12:57:58.595Z,44.78
2018-07-25T13:00:28.194Z,42.99
2018-07-25T13:02:58.134Z,40.93
2018-07-25T13:05:27.277Z,42.90
2018-07-25T13:07:56.422Z,44.15
2018-07-25T13:10:25.599Z,44.44
2018-07-25T13:12:54.849Z,45.57
2018-07-25T13:15:24.378Z,45.21
2018-07-25T13:17:54.069Z,47.40
2018-07-25T13:20:23.538Z,42.69
2018-07-25T13:22:52.732Z,42.21
2018-07-25T13:25:21.937Z,44.91
2018-07-25T13:27:51.054Z,44.15
2018-07-25T13:30:20.192Z,45.54
2018-07-25T13:32:49.387Z,42.03
2018-07-25T13:35:18.708Z,43.60
2018-07-25T13:37:47.387Z,44.57
2018-07-25T13:40:16.506Z,41.12
2018-07-25T13:42:45.681Z,41.77
2018-07-25T13:45:14.790Z,41.32
2018-07-25T13:47:43.918Z,41.34
2018-07-25T13:50:13.082Z,41.76
2018-07-25T13:52:42.259Z,41.08
2018-07-25T13:55:11.426Z,40.80
2018-07-25T13:57:41.277Z,41.53
2018-07-25T14:00:11.883Z,42.50
2018-07-25T14:02:41.286Z,41.57
2018-07-25T14:05:13.095Z,39.60
2018-07-25T14:07:42.754Z,38.03
2018-07-25T14:10:11.941Z,37.02
2018-07-25T14:12:41.141Z,38.87
2018-07-25T14:15:10.294Z,40.60
2018-07-25T14:17:39.557Z,41.76
2018-07-25T14:20:09.218Z,40.76
2018-07-25T14:22:38.332Z,41.12
2018-07-25T14:25:07.254Z,40.74
2018-07-25T14:27:36.062Z,41.66
2018-07-25T14:30:05.696Z,42.10
2018-07-25T14:32:34.778Z,38.85
2018-07-25T14:35:05.441Z,37.73
2018-07-25T14:37:34.533Z,36.18
2018-07-25T14:40:03.345Z,35.78
2018-07-25T14:42:32.725Z,36.94
2018-07-25T14:45:03.331Z,36.30
2018-07-25T14:47:33.402Z,36.85
2018-07-25T14:50:01.981Z,36.79
2018-07-25T14:52:31.314Z,37.06
2018-07-25T14:55:00.583Z,37.58
2018-07-25T14:57:29.231Z,38.13
2018-07-25T14:59:58.802Z,37.94
2018-07-25T15:02:28.056Z,38.50
2018-07-25T15:04:57.514Z,38.02
2018-07-25T15:07:26.614Z,36.78
2018-07-25T15:09:55.790Z,38.69
2018-07-25T15:12:30.116Z,40.66
2018-07-25T15:14:59.538Z,42.20
2018-07-25T15:17:29.035Z,39.63
2018-07-25T15:19:58.484Z,39.40
2018-07-25T15:22:27.789Z,38.74
2018-07-25T15:24:56.971Z,38.06
2018-07-25T15:27:26.377Z,37.19
2018-07-25T15:29:55.787Z,36.50
2018-07-25T15:32:26.154Z,35.55
2018-07-25T15:34:55.458Z,35.36
2018-07-25T15:37:26.027Z,36.64
2018-07-25T15:39:55.742Z,36.96
2018-07-25T15:42:28.659Z,36.16
2018-07-25T15:44:57.410Z,37.12
2018-07-25T15:47:26.618Z,37.24
2018-07-25T15:49:55.710Z,37.69
2018-07-25T15:52:24.588Z,36.52
2018-07-25T15:54:53.742Z,35.77
2018-07-25T15:57:22.871Z,36.48
2018-07-25T15:59:52.059Z,36.23
2018-07-25T16:02:21.158Z,35.42
2018-07-25T16:04:50.275Z,36.11
2018-07-25T16:07:19.390Z,35.86
2018-07-25T16:09:48.585Z,35.73
2018-07-25T16:12:17.710Z,35.35
2018-07-25T16:14:46.814Z,35.94
2018-07-25T16:17:15.925Z,36.55
2018-07-25T16:19:45.282Z,37.43
2018-07-25T16:22:14.645Z,37.78
2018-07-25T16:24:44.227Z,37.65
2018-07-25T16:27:13.541Z,37.37
2018-07-25T16:29:42.837Z,36.39
2018-07-25T16:32:12.143Z,36.82
2018-07-25T16:34:40.874Z,37.43
2018-07-25T16:37:10.013Z,36.32
2018-07-25T16:39:39.148Z,36.96
2018-07-25T16:42:08.267Z,38.38
2018-07-25T16:44:37.435Z,37.82
2018-07-25T16:47:06.550Z,37.59
2018-07-25T16:49:35.814Z,37.52
2018-07-25T16:52:04.951Z,36.75
2018-07-25T16:54:34.075Z,35.86
2018-07-25T16:57:03.005Z,36.03
2018-07-25T16:59:32.146Z,35.88
2018-07-25T17:02:01.316Z,35.58
2018-07-25T17:04:30.425Z,35.06
2018-07-25T17:06:59.574Z,34.81
2018-07-25T17:09:28.454Z,34.86
2018-07-25T17:11:57.593Z,34.85
2018-07-25T17:14:26.756Z,35.19
2018-07-25T17:16:55.866Z,34.77
2018-07-25T17:19:25.012Z,35.10
2018-07-25T17:21:54.154Z,35.27
2018-07-25T17:24:23.329Z,35.18
2018-07-25T17:26:52.505Z,34.99
2018-07-25T17:29:21.635Z,34.62
2018-07-25T17:31:50.770Z,34.17
2018-07-25T17:34:20.102Z,33.40
2018-07-25T17:36:48.850Z,32.54
2018-07-25T17:39:17.970Z,31.82
2018-07-25T17:41:47.118Z,31.69
2018-07-25T17:44:16.235Z,31.55
2018-07-25T17:46:45.374Z,31.44
2018-07-25T17:49:14.499Z,31.67
2018-07-25T17:51:43.609Z,32.08
2018-07-25T17:54:12.732Z,31.99
2018-07-25T17:56:41.850Z,32.21
2018-07-25T17:59:10.954Z,32.45
2018-07-25T18:01:40.058Z,32.26
2018-07-25T18:04:09.166Z,31.99
2018-07-25T18:06:38.333Z,31.95
2018-07-25T18:09:09.010Z,32.22
2018-07-25T18:11:38.245Z,32.32
2018-07-25T18:14:12.174Z,32.43
2018-07-25T18:16:42.790Z,32.34
2018-07-25T18:19:12.271Z,32.21
2018-07-25T18:21:41.897Z,31.78
2018-07-25T18:24:11.616Z,31.63
2018-07-25T18:26:42.033Z,31.52
2018-07-25T18:29:11.202Z,31.23
2018-07-25T18:31:40.386Z,30.87
2018-07-25T18:34:09.537Z,30.62
2018-07-25T18:36:38.434Z,30.22
2018-07-25T18:39:10.385Z,29.97
2018-07-25T18:41:40.579Z,29.87
2018-07-25T18:44:10.389Z,29.64
2018-07-25T18:46:39.834Z,29.03
2018-07-25T18:49:09.190Z,28.89
2018-07-25T18:51:37.297Z,28.54
2018-07-25T18:54:06.778Z,28.36
2018-07-25T18:56:34.647Z,28.16
2018-07-25T18:59:03.767Z,28.13
2018-07-25T19:01:32.887Z,27.97
2018-07-25T19:04:02.002Z,27.78
2018-07-25T19:06:31.145Z,27.79
2018-07-25T19:09:00.319Z,27.70
2018-07-25T19:11:29.471Z,27.65
2018-07-25T19:14:03.912Z,27.50
2018-07-25T19:16:33.005Z,27.28
2018-07-25T19:19:02.455Z,27.22
2018-07-25T19:21:31.619Z,27.23
2018-07-25T19:24:00.754Z,27.06
2018-07-25T19:26:30.318Z,26.86
2018-07-25T19:28:59.210Z,26.63
2018-07-25T19:31:28.276Z,26.55
2018-07-25T19:33:57.058Z,26.31
2018-07-25T19:36:25.718Z,26.17
2018-07-25T19:38:54.882Z,26.08
2018-07-25T19:41:23.997Z,26.02
2018-07-25T19:43:53.095Z,26.08
2018-07-25T19:46:22.234Z,26.04
2018-07-25T19:48:51.367Z,25.97
2018-07-25T19:51:20.497Z,25.74
2018-07-25T19:53:49.691Z,25.65
2018-07-25T19:56:19.086Z,25.43
2018-07-25T19:58:48.438Z,25.32
2018-07-25T20:01:17.810Z,25.25
2018-07-25T20:03:47.201Z,25.11
2018-07-25T20:06:16.522Z,25.05
2018-07-25T20:08:45.520Z,25.04
2018-07-25T20:11:14.715Z,24.86
2018-07-25T20:13:49.011Z,24.76
2018-07-25T20:16:18.959Z,24.93
2018-07-25T20:18:48.096Z,24.88
2018-07-25T20:21:17.230Z,24.77
2018-07-25T20:23:46.580Z,24.72
2018-07-25T20:26:15.717Z,24.48
2018-07-25T20:28:44.856Z,24.31
2018-07-25T20:31:14.019Z,24.35
2018-07-25T20:33:43.150Z,24.25
2018-07-25T20:36:13.253Z,23.89
2018-07-25T20:38:42.578Z,23.76
2018-07-25T20:41:11.895Z,23.79
2018-07-25T20:43:41.210Z,23.93
2018-07-25T20:46:10.550Z,23.90
2018-07-25T20:48:39.906Z,24.02
2018-07-25T20:51:09.955Z,24.06
2018-07-25T20:53:39.094Z,24.10
2018-07-25T20:56:08.295Z,24.20
2018-07-25T20:58:37.915Z,24.09
2018-07-25T21:01:07.052Z,24.19
2018-07-25T21:03:36.278Z,24.05
2018-07-25T21:06:05.517Z,24.17
2018-07-25T21:08:34.677Z,24.12
2018-07-25T21:11:03.905Z,24.01
2018-07-25T21:13:33.464Z,23.82
2018-07-25T21:16:03.609Z,23.73
2018-07-25T21:18:32.843Z,23.48
2018-07-25T21:21:01.967Z,23.20
2018-07-25T21:23:31.714Z,23.18
2018-07-25T21:26:07.595Z,22.94
2018-07-25T21:28:37.838Z,22.58
2018-07-25T21:31:08.042Z,22.58
2018-07-25T21:33:37.772Z,22.59
2018-07-25T21:36:11.970Z,22.50
2018-07-25T21:38:41.248Z,22.42
2018-07-25T21:41:10.922Z,22.46
2018-07-25T21:43:40.143Z,22.48
2018-07-25T21:46:09.803Z,22.35
2018-07-25T21:48:39.202Z,22.20
2018-07-25T21:51:08.598Z,21.99
2018-07-25T21:53:37.433Z,21.86
2018-07-25T21:56:06.558Z,21.79
2018-07-25T21:58:36.118Z,21.83
2018-07-25T22:01:18.297Z,21.72
2018-07-25T22:03:47.882Z,21.61
2018-07-25T22:06:19.074Z,21.44
2018-07-25T22:08:47.976Z,21.34
2018-07-25T22:11:17.134Z,21.16
2018-07-25T22:13:51.690Z,21.11
2018-07-25T22:16:20.790Z,20.96
2018-07-25T22:18:50.106Z,20.88
2018-07-25T22:21:19.262Z,20.79
2018-07-25T22:23:48.591Z,20.81
2018-07-25T22:26:17.714Z,20.65
2018-07-25T22:28:46.877Z,20.58
2018-07-25T22:31:16.009Z,20.50
2018-07-25T22:33:45.161Z,20.46
2018-07-25T22:36:14.330Z,20.47
2018-07-25T22:38:43.710Z,20.51
2018-07-25T22:41:12.878Z,20.53
2018-07-25T22:43:42.058Z,20.39
2018-07-25T22:46:11.650Z,20.39
2018-07-25T22:48:40.812Z,20.33
2018-07-25T22:51:10.062Z,20.26
2018-07-25T22:53:39.465Z,20.21
2018-07-25T22:56:09.938Z,20.30
2018-07-25T22:58:39.054Z,20.15
2018-07-25T23:01:08.191Z,20.00
2018-07-25T23:03:37.718Z,19.89
2018-07-25T23:06:07.267Z,19.93
2018-07-25T23:08:36.450Z,19.88
2018-07-25T23:11:06.187Z,19.74
2018-07-25T23:13:35.310Z,19.63
2018-07-25T23:16:04.900Z,19.78
2018-07-25T23:18:34.138Z,19.75
2018-07-25T23:21:03.309Z,19.85
2018-07-25T23:23:32.430Z,20.08
2018-07-25T23:26:02.374Z,20.00
2018-07-25T23:28:31.494Z,20.02
2018-07-25T23:31:00.630Z,20.05
2018-07-25T23:33:29.937Z,20.19
2018-07-25T23:35:59.124Z,20.19
2018-07-25T23:38:28.278Z,20.12
2018-07-25T23:40:57.659Z,20.01
2018-07-25T23:43:26.786Z,19.89
2018-07-25T23:45:58.793Z,19.74
2018-07-25T23:48:27.982Z,19.65
2018-07-25T23:50:57.234Z,19.54
2018-07-25T23:53:26.381Z,19.31
2018-07-25T23:55:55.571Z,19.24
2018-07-25T23:58:25.265Z,19.14
